Time;durP1;ratioP1;P1;durP2;ratioP2;P2;SDS_P1;SDS_P2;PMS_P1;PMS_P2;Temp;Humidity;BMP_temperature;BMP_pressure;BME280_temperature;BME280_humidity;BME280_pressure;Samples;Min_cycle;Max_cycle;Signal;HPM_P1;HPM_P2
2022/01/28 00:02:48;;;;;;;21.65;2.92;;;;;;;;;;5113063;28;20059;-78
2022/01/28 00:05:22;;;;;;;23.45;3.35;;;;;;;;;;5095109;28;20047;-79
2022/01/28 00:07:48;;;;;;;23.08;3.50;;;;;;;;;;5113175;28;20476;-78
2022/01/28 00:10:15;;;;;;;22.20;3.33;;;;;;;;;;5094760;28;20122;-78
2022/01/28 00:39:44;;;;;;;19.23;3.20;;;;;;;;;;5112933;28;20094;-79
2022/01/28 00:42:10;;;;;;;24.85;3.35;;;;;;;;;;5094918;28;20130;-79
2022/01/28 00:44:37;;;;;;;20.52;2.80;;;;;;;;;;5112872;28;20122;-79
2022/01/28 00:47:04;;;;;;;18.20;3.00;;;;;;;;;;5112570;28;20043;-79
2022/01/28 00:49:30;;;;;;;28.75;3.70;;;;;;;;;;5112740;28;20126;-79
2022/01/28 00:51:56;;;;;;;19.58;3.38;;;;;;;;;;5112475;28;20138;-79
2022/01/28 00:54:22;;;;;;;17.45;3.17;;;;;;;;;;5112508;28;20477;-79
2022/01/28 00:56:48;;;;;;;21.52;3.40;;;;;;;;;;5110312;28;20059;-79
2022/01/28 00:59:14;;;;;;;22.65;3.67;;;;;;;;;;5094257;28;20083;-79
2022/01/28 01:01:41;;;;;;;24.35;3.47;;;;;;;;;;5112587;28;20044;-79
2022/01/28 01:04:08;;;;;;;24.08;3.72;;;;;;;;;;5094321;28;20098;-79
2022/01/28 01:06:34;;;;;;;23.35;3.67;;;;;;;;;;5094348;28;20042;-79
2022/01/28 01:09:00;;;;;;;20.73;3.05;;;;;;;;;;5112207;28;20370;-78
2022/01/28 01:11:27;;;;;;;25.00;3.35;;;;;;;;;;5112448;28;20039;-79
2022/01/28 01:13:54;;;;;;;26.27;2.90;;;;;;;;;;5112472;28;20365;-79
2022/01/28 01:16:32;;;;;;;28.90;3.70;;;;;;;;;;5112187;28;20043;-79
2022/01/28 01:19:16;;;;;;;20.95;3.42;;;;;;;;;;5112183;28;20088;-79
2022/01/28 01:21:43;;;;;;;23.10;3.20;;;;;;;;;;5112151;28;20114;-78
2022/01/28 01:24:18;;;;;;;19.70;3.38;;;;;;;;;;5093735;28;20477;-79
2022/01/28 01:26:44;;;;;;;17.70;3.00;;;;;;;;;;5112232;28;20054;-79
2022/01/28 01:29:13;;;;;;;19.35;3.03;;;;;;;;;;5112260;28;20115;-80
2022/01/28 01:31:42;;;;;;;24.13;2.95;;;;;;;;;;5115453;28;20343;-78
2022/01/28 01:34:15;;;;;;;17.65;3.10;;;;;;;;;;5115905;28;20054;-79
2022/01/28 01:36:42;;;;;;;23.42;3.13;;;;;;;;;;5115855;28;20047;-79
2022/01/28 01:39:09;;;;;;;20.25;3.30;;;;;;;;;;5097838;28;20048;-79
2022/01/28 01:41:40;;;;;;;25.70;3.42;;;;;;;;;;5097771;28;20043;-79
2022/01/28 01:44:16;;;;;;;25.33;3.60;;;;;;;;;;5115520;28;20039;-80
2022/01/28 01:47:10;;;;;;;21.95;3.33;;;;;;;;;;5097467;28;20048;-80
2022/01/28 01:52:13;;;;;;;25.38;3.30;;;;;;;;;;5115424;28;20091;-79
2022/01/28 01:54:41;;;;;;;22.92;3.10;;;;;;;;;;5115710;28;20104;-79
2022/01/28 01:57:12;;;;;;;20.08;2.72;;;;;;;;;;5115237;28;20062;-78
2022/01/28 01:59:38;;;;;;;25.07;3.80;;;;;;;;;;5115366;28;20069;-79
2022/01/28 02:02:05;;;;;;;21.25;3.00;;;;;;;;;;5115123;28;20435;-80
2022/01/28 02:04:31;;;;;;;21.58;2.95;;;;;;;;;;5115190;28;20043;-77
2022/01/28 02:06:58;;;;;;;21.17;3.95;;;;;;;;;;5115213;28;20043;-78
2022/01/28 02:09:24;;;;;;;26.52;3.90;;;;;;;;;;5115392;28;20043;-78
2022/01/28 02:11:50;;;;;;;25.02;3.47;;;;;;;;;;5115385;28;20047;-79
2022/01/28 02:14:16;;;;;;;17.15;3.20;;;;;;;;;;5115167;28;20043;-78
2022/01/28 02:16:42;;;;;;;18.33;3.08;;;;;;;;;;5115089;28;20100;-78
2022/01/28 02:19:08;;;;;;;22.27;3.40;;;;;;;;;;5115029;28;20435;-78
2022/01/28 02:21:40;;;;;;;23.50;3.60;;;;;;;;;;5114815;28;20043;-79
2022/01/28 02:24:07;;;;;;;23.75;3.75;;;;;;;;;;5096749;28;20384;-78
2022/01/28 02:26:35;;;;;;;21.30;2.95;;;;;;;;;;5114998;28;20392;-78
2022/01/28 02:29:08;;;;;;;23.10;3.58;;;;;;;;;;5114842;28;20122;-80
2022/01/28 02:31:34;;;;;;;25.15;4.40;;;;;;;;;;5114706;28;20523;-77
2022/01/28 02:34:01;;;;;;;25.27;3.70;;;;;;;;;;5114764;28;20039;-79
2022/01/28 02:36:27;;;;;;;28.55;3.92;;;;;;;;;;5114683;28;20056;-78
2022/01/28 02:38:54;;;;;;;27.42;5.03;;;;;;;;;;5114943;28;20046;-77
2022/01/28 02:41:22;;;;;;;21.63;3.72;;;;;;;;;;5114064;28;20051;-78
2022/01/28 02:44:06;;;;;;;26.00;3.65;;;;;;;;;;5114631;28;20050;-78
2022/01/28 02:46:34;;;;;;;30.05;3.85;;;;;;;;;;5114369;28;20050;-79
2022/01/28 02:49:05;;;;;;;26.88;3.60;;;;;;;;;;5114613;28;20039;-78
2022/01/28 02:51:31;;;;;;;22.77;4.05;;;;;;;;;;5114612;28;20167;-79
2022/01/28 02:54:00;;;;;;;32.53;4.70;;;;;;;;;;5114370;28;20051;-79
2022/01/28 02:58:57;;;;;;;28.08;4.47;;;;;;;;;;5114071;28;20083;-78
2022/01/28 03:01:24;;;;;;;33.85;4.20;;;;;;;;;;5096260;28;20043;-78
2022/01/28 03:03:50;;;;;;;35.47;5.22;;;;;;;;;;5114428;28;20039;-79
2022/01/28 03:06:18;;;;;;;35.60;5.22;;;;;;;;;;5114163;28;20046;-79
2022/01/28 03:08:51;;;;;;;26.92;4.70;;;;;;;;;;5114256;28;20445;-79
2022/01/28 03:11:42;;;;;;;33.20;4.47;;;;;;;;;;5113982;28;20071;-78
2022/01/28 03:16:51;;;;;;;29.93;4.10;;;;;;;;;;5113884;28;20370;-78
2022/01/28 03:19:21;;;;;;;32.58;4.90;;;;;;;;;;5113842;28;20047;-77
2022/01/28 03:21:57;;;;;;;31.00;5.10;;;;;;;;;;5113608;28;20053;-79
2022/01/28 03:24:28;;;;;;;30.63;4.10;;;;;;;;;;5113922;28;20054;-79
2022/01/28 03:27:01;;;;;;;31.90;4.43;;;;;;;;;;5113983;28;20492;-77
2022/01/28 03:29:27;;;;;;;29.10;4.47;;;;;;;;;;5095597;28;20047;-79
2022/01/28 03:31:53;;;;;;;31.48;5.03;;;;;;;;;;5113564;28;20126;-79
2022/01/28 03:34:19;;;;;;;31.20;5.65;;;;;;;;;;5113403;28;20187;-77
2022/01/28 03:36:46;;;;;;;27.70;4.25;;;;;;;;;;5095249;28;20075;-79
2022/01/28 03:39:12;;;;;;;27.50;3.92;;;;;;;;;;5113488;28;20097;-78
2022/01/28 03:41:38;;;;;;;31.92;4.95;;;;;;;;;;5113564;28;20051;-78
2022/01/28 03:44:05;;;;;;;29.83;4.88;;;;;;;;;;5113514;28;20047;-79
2022/01/28 03:46:31;;;;;;;26.38;4.28;;;;;;;;;;5113385;28;20050;-79
2022/01/28 03:48:58;;;;;;;25.63;4.22;;;;;;;;;;5113247;28;20126;-79
2022/01/28 03:51:24;;;;;;;28.90;4.68;;;;;;;;;;5113335;28;20049;-78
2022/01/28 03:53:50;;;;;;;34.15;4.57;;;;;;;;;;5112793;28;20389;-79
2022/01/28 03:56:17;;;;;;;33.33;4.88;;;;;;;;;;5091556;28;20131;-78
2022/01/28 03:58:44;;;;;;;32.13;4.47;;;;;;;;;;5091800;28;20052;-79
2022/01/28 04:01:21;;;;;;;30.95;4.35;;;;;;;;;;5092806;28;20050;-78
2022/01/28 04:11:46;;;;;;;26.52;4.25;;;;;;;;;;5092656;28;20050;-79
2022/01/28 04:14:29;;;;;;;27.98;3.78;;;;;;;;;;5092576;28;20040;-79
2022/01/28 04:19:40;;;;;;;26.27;4.00;;;;;;;;;;5092734;28;20059;-79
2022/01/28 04:22:06;;;;;;;21.48;3.15;;;;;;;;;;5092689;28;20047;-78
2022/01/28 04:24:32;;;;;;;23.85;4.45;;;;;;;;;;5092545;28;20477;-78
2022/01/28 04:26:58;;;;;;;36.30;5.35;;;;;;;;;;5091675;28;20123;-79
2022/01/28 04:29:25;;;;;;;29.63;5.07;;;;;;;;;;5092732;28;20039;-79
2022/01/28 04:31:51;;;;;;;30.42;4.80;;;;;;;;;;5092539;28;20044;-78
2022/01/28 04:34:19;;;;;;;24.40;3.95;;;;;;;;;;5091459;28;20040;-78
2022/01/28 04:37:03;;;;;;;22.70;3.90;;;;;;;;;;5092179;28;20051;-79
2022/01/28 04:42:13;;;;;;;23.42;3.90;;;;;;;;;;5092448;28;20496;-78
2022/01/28 04:44:53;;;;;;;23.55;3.78;;;;;;;;;;5092325;28;20040;-79
2022/01/28 04:50:02;;;;;;;23.13;4.57;;;;;;;;;;5092349;28;20454;-78
2022/01/28 05:07:57;;;;;;;24.08;3.83;;;;;;;;;;5116339;28;20506;-78
2022/01/28 05:11:07;;;;;;;24.27;3.90;;;;;;;;;;5116238;28;20549;-78
2022/01/28 05:24:58;;;;;;;30.80;4.50;;;;;;;;;;5116175;28;20472;-78
2022/01/28 05:26:41;;;;;;;23.38;4.20;;;;;;;;;;5108065;28;20044;-78
2022/01/28 05:29:07;;;;;;;28.52;4.30;;;;;;;;;;5115857;28;20047;-79
2022/01/28 05:31:34;;;;;;;21.10;4.18;;;;;;;;;;5116175;28;20462;-79
2022/01/28 05:34:00;;;;;;;27.63;4.35;;;;;;;;;;5115882;28;20078;-79
2022/01/28 05:36:26;;;;;;;27.58;4.45;;;;;;;;;;5097661;28;20100;-78
2022/01/28 05:38:52;;;;;;;27.98;4.03;;;;;;;;;;5115870;28;20043;-79
2022/01/28 05:41:19;;;;;;;25.23;4.55;;;;;;;;;;5115714;28;20040;-79
2022/01/28 05:43:45;;;;;;;27.05;4.47;;;;;;;;;;5116218;28;20043;-79
2022/01/28 05:46:11;;;;;;;29.50;4.20;;;;;;;;;;5115786;28;20046;-79
2022/01/28 05:48:37;;;;;;;31.60;4.07;;;;;;;;;;5115786;28;20044;-78
2022/01/28 05:51:04;;;;;;;34.10;4.50;;;;;;;;;;5097729;28;20123;-78
2022/01/28 05:53:30;;;;;;;30.48;4.32;;;;;;;;;;5115527;28;20051;-78
2022/01/28 05:55:56;;;;;;;30.23;4.63;;;;;;;;;;5115085;28;20135;-79
2022/01/28 05:58:22;;;;;;;26.25;4.55;;;;;;;;;;5097433;28;20054;-79
2022/01/28 06:00:48;;;;;;;27.75;4.45;;;;;;;;;;5115666;28;20043;-79
2022/01/28 06:03:14;;;;;;;22.45;4.43;;;;;;;;;;5115459;28;20040;-80
2022/01/28 06:05:40;;;;;;;28.45;4.28;;;;;;;;;;5115413;28;20039;-79
2022/01/28 06:08:06;;;;;;;30.25;4.78;;;;;;;;;;5115310;28;20417;-79
2022/01/28 06:10:32;;;;;;;29.30;4.47;;;;;;;;;;5115194;28;20104;-79
2022/01/28 06:12:59;;;;;;;28.42;4.68;;;;;;;;;;5115234;28;20058;-79
2022/01/28 06:15:25;;;;;;;26.77;4.45;;;;;;;;;;5096547;28;20047;-78
2022/01/28 06:17:51;;;;;;;29.75;4.95;;;;;;;;;;5114769;28;20548;-80
2022/01/28 06:20:19;;;;;;;27.13;4.47;;;;;;;;;;5115087;28;20039;-79
2022/01/28 06:22:45;;;;;;;29.40;4.28;;;;;;;;;;5096897;28;20039;-79
2022/01/28 06:25:15;;;;;;;28.63;4.25;;;;;;;;;;5114863;28;20039;-79
2022/01/28 06:27:42;;;;;;;28.63;4.65;;;;;;;;;;5115066;28;20043;-79
2022/01/28 06:30:08;;;;;;;31.88;4.15;;;;;;;;;;5114835;28;20065;-79
2022/01/28 06:32:35;;;;;;;26.15;3.97;;;;;;;;;;5114907;28;20043;-79
2022/01/28 06:35:07;;;;;;;22.85;4.07;;;;;;;;;;5114795;28;20451;-79
2022/01/28 06:37:33;;;;;;;24.25;4.43;;;;;;;;;;5114858;28;20043;-79
2022/01/28 06:39:59;;;;;;;30.02;4.50;;;;;;;;;;5114732;28;20047;-78
2022/01/28 06:42:25;;;;;;;31.58;4.38;;;;;;;;;;5096325;28;20586;-79
2022/01/28 06:44:51;;;;;;;21.70;4.10;;;;;;;;;;5114260;28;20077;-78
2022/01/28 06:47:18;;;;;;;34.10;4.05;;;;;;;;;;5096478;28;20038;-78
2022/01/28 06:49:44;;;;;;;26.05;4.22;;;;;;;;;;5114355;28;20395;-79
2022/01/28 06:52:10;;;;;;;30.45;4.22;;;;;;;;;;5114086;28;20366;-78
2022/01/28 06:54:36;;;;;;;33.53;4.57;;;;;;;;;;5114118;28;20044;-78
2022/01/28 06:57:02;;;;;;;25.67;4.60;;;;;;;;;;5114058;28;20047;-78
2022/01/28 06:59:28;;;;;;;24.92;3.75;;;;;;;;;;5114374;28;20511;-78
2022/01/28 07:01:55;;;;;;;24.02;4.13;;;;;;;;;;5096002;28;20134;-79
2022/01/28 07:04:21;;;;;;;32.25;5.38;;;;;;;;;;5114233;28;20047;-79
2022/01/28 07:06:47;;;;;;;28.70;4.38;;;;;;;;;;5095885;28;20114;-78
2022/01/28 07:09:14;;;;;;;21.48;3.35;;;;;;;;;;5114020;28;20048;-79
2022/01/28 07:11:40;;;;;;;34.28;4.68;;;;;;;;;;5114210;28;20039;-80
2022/01/28 07:14:06;;;;;;;26.13;4.00;;;;;;;;;;5113974;28;20075;-80
2022/01/28 07:16:32;;;;;;;27.38;4.50;;;;;;;;;;5095516;28;20083;-79
2022/01/28 07:18:58;;;;;;;28.85;4.28;;;;;;;;;;5113776;28;20078;-79
2022/01/28 07:21:24;;;;;;;27.08;4.20;;;;;;;;;;5112899;28;20044;-79
2022/01/28 07:23:50;;;;;;;22.92;4.10;;;;;;;;;;5113308;28;20039;-78
2022/01/28 07:26:16;;;;;;;32.83;4.20;;;;;;;;;;5113134;28;20489;-78
2022/01/28 07:28:42;;;;;;;29.13;4.30;;;;;;;;;;5113363;28;20509;-79
2022/01/28 07:31:10;;;;;;;33.50;4.93;;;;;;;;;;5115600;27;20118;-79
2022/01/28 07:33:36;;;;;;;27.65;5.03;;;;;;;;;;5120542;27;20043;-77
2022/01/28 07:36:02;;;;;;;28.27;4.63;;;;;;;;;;5115263;27;20529;-79
2022/01/28 07:38:28;;;;;;;31.08;4.50;;;;;;;;;;5116066;27;20039;-78
2022/01/28 07:40:57;;;;;;;24.83;3.83;;;;;;;;;;5115799;27;20559;-79
2022/01/28 07:43:23;;;;;;;25.30;3.70;;;;;;;;;;5134133;27;20043;-79
2022/01/28 07:45:49;;;;;;;28.23;4.55;;;;;;;;;;5133961;27;20091;-79
2022/01/28 07:48:15;;;;;;;29.65;5.20;;;;;;;;;;5133881;27;20568;-79
2022/01/28 07:50:41;;;;;;;28.48;4.45;;;;;;;;;;5133646;27;20034;-79
2022/01/28 07:53:09;;;;;;;24.70;3.97;;;;;;;;;;5133609;27;20482;-79
2022/01/28 07:55:36;;;;;;;36.72;5.05;;;;;;;;;;5115443;27;20043;-79
2022/01/28 07:58:02;;;;;;;31.70;4.35;;;;;;;;;;5115482;27;20103;-79
2022/01/28 08:00:28;;;;;;;29.70;4.53;;;;;;;;;;5133789;27;20043;-80
2022/01/28 08:02:54;;;;;;;30.45;4.28;;;;;;;;;;5133680;27;20075;-80
2022/01/28 08:05:20;;;;;;;31.70;4.95;;;;;;;;;;5115243;27;20043;-72
2022/01/28 08:07:47;;;;;;;27.25;4.13;;;;;;;;;;5115566;27;20042;-79
2022/01/28 08:10:16;;;;;;;29.38;4.80;;;;;;;;;;5133581;27;20043;-79
2022/01/28 08:12:49;;;;;;;22.98;4.05;;;;;;;;;;5115461;27;20090;-78
2022/01/28 08:15:16;;;;;;;24.67;3.63;;;;;;;;;;5133362;27;20515;-78
2022/01/28 08:17:42;;;;;;;31.08;4.63;;;;;;;;;;5115292;28;20075;-79
2022/01/28 08:20:09;;;;;;;27.23;4.00;;;;;;;;;;5133327;28;20488;-78
2022/01/28 08:22:52;;;;;;;26.67;4.70;;;;;;;;;;5115381;28;20424;-78
2022/01/28 08:25:19;;;;;;;24.30;3.63;;;;;;;;;;5115487;28;20070;-78
2022/01/28 08:27:45;;;;;;;30.98;4.65;;;;;;;;;;5133471;28;20039;-78
2022/01/28 08:30:16;;;;;;;25.40;3.92;;;;;;;;;;5133382;28;20434;-79
2022/01/28 08:32:42;;;;;;;33.13;5.00;;;;;;;;;;5133493;28;20483;-78
2022/01/28 08:35:09;;;;;;;28.13;4.20;;;;;;;;;;5116221;28;20048;-79
2022/01/28 08:37:35;;;;;;;25.63;4.13;;;;;;;;;;5094584;28;20071;-78
2022/01/28 08:40:01;;;;;;;21.23;3.95;;;;;;;;;;5097070;28;20042;-79
2022/01/28 08:42:28;;;;;;;28.55;4.40;;;;;;;;;;5116818;28;20044;-79
2022/01/28 08:44:54;;;;;;;25.33;4.15;;;;;;;;;;5116963;28;20168;-78
2022/01/28 08:47:20;;;;;;;23.98;4.05;;;;;;;;;;5116875;28;20082;-78
2022/01/28 08:49:46;;;;;;;22.63;4.18;;;;;;;;;;5117071;28;20043;-79
2022/01/28 08:52:13;;;;;;;24.75;4.55;;;;;;;;;;5116682;28;20064;-79
2022/01/28 08:54:39;;;;;;;25.33;4.10;;;;;;;;;;5116696;28;20476;-79
2022/01/28 08:57:05;;;;;;;27.30;3.85;;;;;;;;;;5098205;28;20054;-79
2022/01/28 08:59:31;;;;;;;31.20;4.53;;;;;;;;;;5098089;28;20036;-79
2022/01/28 09:01:57;;;;;;;25.85;4.50;;;;;;;;;;5116811;28;20043;-78
2022/01/28 09:04:23;;;;;;;29.75;4.03;;;;;;;;;;5116650;28;20050;-78
2022/01/28 09:06:49;;;;;;;33.85;4.53;;;;;;;;;;5116651;28;20357;-78
2022/01/28 09:09:18;;;;;;;27.40;4.75;;;;;;;;;;5116352;28;20118;-77
2022/01/28 09:12:08;;;;;;;27.35;4.07;;;;;;;;;;5116420;28;20043;-78
2022/01/28 09:14:30;;;;;;;33.55;4.22;;;;;;;;;;5115317;28;20130;-78
2022/01/28 09:16:56;;;;;;;24.58;4.15;;;;;;;;;;5097951;28;20043;-78
2022/01/28 09:19:23;;;;;;;26.92;4.25;;;;;;;;;;5116333;28;20086;-79
2022/01/28 09:21:50;;;;;;;31.33;4.72;;;;;;;;;;5097775;28;20043;-78
2022/01/28 09:24:16;;;;;;;26.02;3.85;;;;;;;;;;5116118;28;20119;-79
2022/01/28 09:26:42;;;;;;;24.48;4.05;;;;;;;;;;5115983;28;20357;-78
2022/01/28 09:29:08;;;;;;;27.70;4.30;;;;;;;;;;5116175;28;20122;-77
2022/01/28 09:31:34;;;;;;;30.48;4.30;;;;;;;;;;5097925;28;20089;-79
2022/01/28 09:34:01;;;;;;;24.92;4.65;;;;;;;;;;5116077;28;20122;-79
2022/01/28 09:36:27;;;;;;;25.60;4.30;;;;;;;;;;5080474;28;20061;-78
2022/01/28 09:38:53;;;;;;;28.67;4.38;;;;;;;;;;5115704;28;20079;-78
2022/01/28 09:41:20;;;;;;;25.10;4.40;;;;;;;;;;5115866;28;20122;-78
2022/01/28 09:43:46;;;;;;;35.00;4.53;;;;;;;;;;5116111;28;20479;-78
2022/01/28 09:46:13;;;;;;;28.58;4.95;;;;;;;;;;5097616;28;20375;-78
2022/01/28 09:48:40;;;;;;;23.77;3.63;;;;;;;;;;5097368;28;20039;-79
2022/01/28 09:51:06;;;;;;;20.95;4.30;;;;;;;;;;5096359;28;20126;-78
2022/01/28 09:53:33;;;;;;;34.90;4.57;;;;;;;;;;5097248;28;20122;-79
2022/01/28 09:55:59;;;;;;;25.65;4.07;;;;;;;;;;5093956;28;20051;-78
2022/01/28 09:58:26;;;;;;;26.70;4.28;;;;;;;;;;5095250;28;20044;-74
2022/01/28 10:00:52;;;;;;;32.30;4.95;;;;;;;;;;5094202;28;20495;-79
2022/01/28 10:03:19;;;;;;;25.42;3.88;;;;;;;;;;5094220;28;20040;-79
2022/01/28 10:05:47;;;;;;;38.72;4.30;;;;;;;;;;5095060;28;20043;-79
2022/01/28 10:08:17;;;;;;;26.83;5.10;;;;;;;;;;5095054;28;20040;-79
2022/01/28 10:10:53;;;;;;;24.45;4.68;;;;;;;;;;5093681;28;20119;-79
2022/01/28 10:13:22;;;;;;;28.65;4.65;;;;;;;;;;5077091;28;20050;-79
2022/01/28 10:16:12;;;;;;;22.83;4.38;;;;;;;;;;5094731;28;20175;-79
2022/01/28 10:18:49;;;;;;;29.20;3.90;;;;;;;;;;5088311;28;20059;-79
2022/01/28 10:21:19;;;;;;;31.13;5.55;;;;;;;;;;5094966;28;20047;-79
2022/01/28 10:23:58;;;;;;;32.10;4.70;;;;;;;;;;5094591;28;20036;-79
2022/01/28 10:26:31;;;;;;;24.90;4.90;;;;;;;;;;5094747;28;20126;-79
2022/01/28 10:28:58;;;;;;;25.42;5.22;;;;;;;;;;5094618;28;20047;-79
2022/01/28 10:31:33;;;;;;;33.65;5.63;;;;;;;;;;5093405;28;20478;-78
2022/01/28 10:34:16;;;;;;;29.10;4.53;;;;;;;;;;5094665;28;20188;-79
2022/01/28 10:36:43;;;;;;;26.30;4.25;;;;;;;;;;5094182;28;20047;-79
2022/01/28 10:39:13;;;;;;;29.55;4.88;;;;;;;;;;5094476;28;20043;-79
2022/01/28 10:41:48;;;;;;;25.45;4.10;;;;;;;;;;5093215;28;20097;-79
2022/01/28 10:44:15;;;;;;;30.63;5.18;;;;;;;;;;5094323;28;20036;-79
2022/01/28 10:46:41;;;;;;;23.38;4.65;;;;;;;;;;5094433;28;20083;-79
2022/01/28 10:49:08;;;;;;;26.70;4.70;;;;;;;;;;5093726;28;20131;-79
2022/01/28 10:51:42;;;;;;;28.42;4.25;;;;;;;;;;5094052;28;20052;-79
2022/01/28 10:54:12;;;;;;;27.23;4.80;;;;;;;;;;5093901;28;20040;-79
2022/01/28 10:56:47;;;;;;;26.42;4.38;;;;;;;;;;5103436;28;20090;-79
2022/01/28 10:59:15;;;;;;;25.65;4.10;;;;;;;;;;5114329;28;20082;-79
2022/01/28 11:01:42;;;;;;;31.98;5.63;;;;;;;;;;5113959;28;20094;-79
2022/01/28 11:04:10;;;;;;;30.30;5.97;;;;;;;;;;5114250;28;20043;-78
2022/01/28 11:06:36;;;;;;;25.77;4.15;;;;;;;;;;5096014;28;20039;-78
2022/01/28 11:09:02;;;;;;;28.15;4.53;;;;;;;;;;5114434;28;20047;-79
2022/01/28 11:11:28;;;;;;;29.70;4.32;;;;;;;;;;5114194;28;20134;-78
2022/01/28 11:13:55;;;;;;;29.25;4.30;;;;;;;;;;5114073;28;20480;-78
2022/01/28 11:16:21;;;;;;;28.83;3.70;;;;;;;;;;5113984;28;20127;-79
2022/01/28 11:18:47;;;;;;;30.17;3.90;;;;;;;;;;5113938;28;20432;-79
2022/01/28 11:21:17;;;;;;;33.00;4.70;;;;;;;;;;5114438;27;20160;-79
2022/01/28 11:23:53;;;;;;;30.92;4.90;;;;;;;;;;5107481;28;20043;-79
2022/01/28 11:26:19;;;;;;;29.70;4.72;;;;;;;;;;5113655;28;20485;-79
2022/01/28 11:28:55;;;;;;;25.23;4.05;;;;;;;;;;5095775;28;20476;-80
2022/01/28 11:31:40;;;;;;;27.70;4.90;;;;;;;;;;5130754;27;20051;-79
2022/01/28 11:34:16;;;;;;;33.50;4.70;;;;;;;;;;5134040;27;20082;-80
2022/01/28 11:36:42;;;;;;;26.40;4.53;;;;;;;;;;5115717;27;20365;-80
2022/01/28 11:39:22;;;;;;;33.03;4.45;;;;;;;;;;5115983;27;20043;-79
2022/01/28 11:42:17;;;;;;;30.50;4.32;;;;;;;;;;5133843;27;20104;-80
2022/01/28 11:44:43;;;;;;;23.85;4.22;;;;;;;;;;5131575;27;20126;-80
2022/01/28 11:47:11;;;;;;;36.10;4.53;;;;;;;;;;5133915;27;20070;-79
2022/01/28 11:49:54;;;;;;;31.67;5.00;;;;;;;;;;5134015;27;20035;-79
2022/01/28 11:52:25;;;;;;;26.65;4.53;;;;;;;;;;5132144;27;20175;-79
2022/01/28 11:54:52;;;;;;;28.45;4.28;;;;;;;;;;5133885;27;20307;-79
2022/01/28 11:57:21;;;;;;;27.40;4.47;;;;;;;;;;5133704;27;20051;-79
2022/01/28 11:59:47;;;;;;;29.05;3.78;;;;;;;;;;5133821;27;20392;-79
2022/01/28 12:02:15;;;;;;;28.27;4.63;;;;;;;;;;5133782;27;20083;-79
2022/01/28 12:04:42;;;;;;;31.98;4.68;;;;;;;;;;5133564;27;20054;-79
2022/01/28 12:07:15;;;;;;;23.33;4.40;;;;;;;;;;5133355;27;20095;-79
2022/01/28 12:09:52;;;;;;;29.17;3.88;;;;;;;;;;5133620;27;20095;-79
2022/01/28 12:12:24;;;;;;;27.92;4.22;;;;;;;;;;5133642;27;20329;-80
2022/01/28 12:15:05;;;;;;;27.40;4.15;;;;;;;;;;5132904;27;20075;-79
2022/01/28 12:17:32;;;;;;;;;;;;;;;;;;5134007;27;20038;-79
2022/01/28 12:20:21;;;;;;;29.73;3.92;;;;;;;;;;5115510;28;19915;-78
2022/01/28 12:23:06;;;;;;;29.65;4.20;;;;;;;;;;5133257;28;20085;-79
2022/01/28 12:25:41;;;;;;;28.23;4.07;;;;;;;;;;5133190;28;20122;-78
2022/01/28 12:28:17;;;;;;;21.60;4.05;;;;;;;;;;5115498;28;20118;-79
2022/01/28 12:30:45;;;;;;;27.50;3.95;;;;;;;;;;5115301;28;20074;-79
2022/01/28 12:33:11;;;;;;;32.78;4.65;;;;;;;;;;5133614;28;20056;-79
2022/01/28 12:35:41;;;;;;;28.77;4.60;;;;;;;;;;5115191;28;20121;-79
2022/01/28 12:38:08;;;;;;;25.67;3.90;;;;;;;;;;5133343;28;20458;-79
2022/01/28 12:40:36;;;;;;;31.98;4.30;;;;;;;;;;5098198;28;20131;-79
2022/01/28 12:43:05;;;;;;;31.75;4.32;;;;;;;;;;5133425;28;20510;-78
2022/01/28 12:45:31;;;;;;;26.88;4.30;;;;;;;;;;5133379;28;20074;-79
2022/01/28 12:47:57;;;;;;;28.70;4.35;;;;;;;;;;5133342;28;20047;-79
2022/01/28 12:50:24;;;;;;;25.58;3.63;;;;;;;;;;5133336;28;20035;-79
2022/01/28 12:52:50;;;;;;;20.92;3.40;;;;;;;;;;5132297;28;20088;-79
2022/01/28 12:55:17;;;;;;;31.15;4.28;;;;;;;;;;5098071;28;20035;-79
2022/01/28 12:57:44;;;;;;;25.90;4.30;;;;;;;;;;5133004;28;20604;-80
2022/01/28 13:00:10;;;;;;;26.85;4.35;;;;;;;;;;5133244;28;20122;-79
2022/01/28 13:02:37;;;;;;;25.77;3.38;;;;;;;;;;5133098;28;20422;-78
2022/01/28 13:10:25;;;;;;;21.70;3.63;;;;;;;;;;5132975;28;20051;-79
2022/01/28 13:12:52;;;;;;;27.05;3.75;;;;;;;;;;5133087;28;20066;-79
2022/01/28 13:15:19;;;;;;;28.55;4.18;;;;;;;;;;5114833;28;20476;-79
2022/01/28 13:17:53;;;;;;;18.80;3.20;;;;;;;;;;5132897;28;20078;-79
2022/01/28 13:20:20;;;;;;;25.58;4.45;;;;;;;;;;5133080;28;20121;-79
2022/01/28 13:22:51;;;;;;;23.70;3.63;;;;;;;;;;5098035;28;20035;-79
2022/01/28 13:25:21;;;;;;;22.83;3.33;;;;;;;;;;5134253;27;20438;-78
2022/01/28 13:27:51;;;;;;;24.00;3.65;;;;;;;;;;5136816;27;20118;-79
2022/01/28 13:30:19;;;;;;;21.42;3.60;;;;;;;;;;5136597;27;20395;-79
2022/01/28 13:32:47;;;;;;;24.80;4.07;;;;;;;;;;5136583;27;20122;-79
2022/01/28 13:35:13;;;;;;;23.30;3.85;;;;;;;;;;5136607;27;20043;-78
2022/01/28 13:37:44;;;;;;;26.30;3.25;;;;;;;;;;5136448;27;20043;-80
2022/01/28 13:40:10;;;;;;;24.65;3.67;;;;;;;;;;5136574;27;20039;-80
2022/01/28 13:42:38;;;;;;;22.98;3.50;;;;;;;;;;5136519;27;20054;-80
2022/01/28 13:45:07;;;;;;;22.20;3.63;;;;;;;;;;5136435;27;20499;-80
2022/01/28 13:47:49;;;;;;;27.77;4.00;;;;;;;;;;5118290;27;20538;-81
2022/01/28 13:50:26;;;;;;;21.17;3.00;;;;;;;;;;5136303;27;20475;-79
2022/01/28 13:53:07;;;;;;;20.92;3.58;;;;;;;;;;5136193;27;20430;-79
2022/01/28 13:55:33;;;;;;;;;;;;;;;;;;5136550;27;20039;-79
2022/01/28 13:58:03;;;;;;;22.38;4.10;;;;;;;;;;5136163;27;20040;-78
2022/01/28 14:00:39;;;;;;;25.88;3.72;;;;;;;;;;5136189;27;20499;-79
2022/01/28 14:03:13;;;;;;;23.60;4.10;;;;;;;;;;5136036;27;20081;-79
2022/01/28 14:05:49;;;;;;;24.52;3.28;;;;;;;;;;5135849;27;20488;-79
2022/01/28 14:08:15;;;;;;;22.08;3.33;;;;;;;;;;5135808;27;20043;-79
2022/01/28 14:10:41;;;;;;;22.17;3.58;;;;;;;;;;5136151;27;20050;-80
2022/01/28 14:13:21;;;;;;;21.38;3.72;;;;;;;;;;5135811;27;20035;-79
2022/01/28 14:16:04;;;;;;;26.48;3.97;;;;;;;;;;5135625;27;20046;-80
2022/01/28 14:18:30;;;;;;;18.13;3.50;;;;;;;;;;5135981;27;20383;-80
2022/01/28 14:20:57;;;;;;;18.40;3.85;;;;;;;;;;5135597;27;20419;-79
2022/01/28 14:23:23;;;;;;;22.83;3.83;;;;;;;;;;5116971;27;20043;-79
2022/01/28 14:25:49;;;;;;;23.25;3.50;;;;;;;;;;5135486;27;20050;-79
2022/01/28 14:28:37;;;;;;;22.98;3.50;;;;;;;;;;5135550;27;20039;-79
2022/01/28 14:31:08;;;;;;;25.63;3.90;;;;;;;;;;5135109;27;20492;-78
2022/01/28 14:33:35;;;;;;;20.58;3.70;;;;;;;;;;5135458;27;20038;-79
2022/01/28 14:36:02;;;;;;;23.33;3.50;;;;;;;;;;5117161;27;20043;-80
2022/01/28 14:38:28;;;;;;;23.80;3.42;;;;;;;;;;5134606;27;20075;-78
2022/01/28 14:40:54;;;;;;;27.38;4.10;;;;;;;;;;5135316;27;20047;-79
2022/01/28 14:43:20;;;;;;;23.90;3.88;;;;;;;;;;5135021;27;20043;-79
2022/01/28 14:45:46;;;;;;;23.42;4.13;;;;;;;;;;5135316;27;20035;-78
2022/01/28 14:48:15;;;;;;;25.58;3.88;;;;;;;;;;5116932;27;20039;-79
2022/01/28 14:50:42;;;;;;;22.45;3.83;;;;;;;;;;5135143;27;20408;-79
2022/01/28 14:53:08;;;;;;;23.05;4.53;;;;;;;;;;5134909;27;20126;-78
2022/01/28 14:55:34;;;;;;;21.25;3.75;;;;;;;;;;5134595;27;20079;-79
2022/01/28 14:58:00;;;;;;;23.88;3.58;;;;;;;;;;5134818;27;20515;-78
2022/01/28 15:00:26;;;;;;;21.13;4.45;;;;;;;;;;5134731;27;20046;-78
2022/01/28 15:02:52;;;;;;;22.88;4.00;;;;;;;;;;5134730;27;20540;-80
2022/01/28 15:05:18;;;;;;;21.20;3.70;;;;;;;;;;5134483;27;20042;-79
2022/01/28 15:07:47;;;;;;;21.58;3.53;;;;;;;;;;5134570;27;20043;-78
2022/01/28 15:10:13;;;;;;;18.17;3.45;;;;;;;;;;5134602;27;20126;-81
2022/01/28 15:12:40;;;;;;;24.20;4.53;;;;;;;;;;5134554;27;20065;-79
2022/01/28 15:15:06;;;;;;;24.08;3.78;;;;;;;;;;5116556;27;20422;-79
2022/01/28 15:17:32;;;;;;;17.67;3.63;;;;;;;;;;5134781;27;20039;-78
2022/01/28 15:19:59;;;;;;;23.92;3.92;;;;;;;;;;5134673;27;20039;-78
2022/01/28 15:22:25;;;;;;;20.58;3.67;;;;;;;;;;5134399;27;20107;-78
2022/01/28 15:24:51;;;;;;;24.75;4.22;;;;;;;;;;5134361;27;20039;-79
2022/01/28 15:27:19;;;;;;;20.33;3.70;;;;;;;;;;5134337;27;20041;-79
2022/01/28 15:29:48;;;;;;;24.38;4.13;;;;;;;;;;5134488;27;20437;-79
2022/01/28 15:37:29;;;;;;;23.50;4.32;;;;;;;;;;5134180;27;20070;-79
2022/01/28 15:39:55;;;;;;;23.20;3.95;;;;;;;;;;5098803;27;20043;-79
2022/01/28 15:42:21;;;;;;;23.02;4.68;;;;;;;;;;5134350;27;20095;-78
2022/01/28 15:44:47;;;;;;;21.65;4.13;;;;;;;;;;5134026;27;20121;-79
2022/01/28 15:47:14;;;;;;;24.63;5.55;;;;;;;;;;5133994;27;20480;-79
2022/01/28 15:49:41;;;;;;;28.83;5.13;;;;;;;;;;5133105;27;20043;-79
2022/01/28 15:52:08;;;;;;;22.30;5.28;;;;;;;;;;5133932;27;20047;-80
2022/01/28 15:54:34;;;;;;;26.08;5.35;;;;;;;;;;5134170;27;20043;-79
2022/01/28 15:57:01;;;;;;;25.60;5.50;;;;;;;;;;5115365;27;20491;-78
2022/01/28 15:59:27;;;;;;;22.25;4.80;;;;;;;;;;5133425;27;20043;-78
2022/01/28 16:01:53;;;;;;;26.23;4.70;;;;;;;;;;5133780;27;20110;-78
2022/01/28 16:04:19;;;;;;;21.63;5.50;;;;;;;;;;5133628;27;20091;-79
2022/01/28 16:06:48;;;;;;;23.40;5.22;;;;;;;;;;5133681;27;20111;-78
2022/01/28 16:09:14;;;;;;;31.60;5.28;;;;;;;;;;5133864;27;20039;-79